Time;durP1;ratioP1;P1;durP2;ratioP2;P2;SDS_P1;SDS_P2;PMS_P1;PMS_P2;Temp;Humidity;BMP_temperature;BMP_pressure;BME280_temperature;BME280_humidity;BME280_pressure;Samples;Min_cycle;Max_cycle;Signal;HPM_P1;HPM_P2
2023/01/02 00:01:06;;;;;;;5.67;2.93;;;13.60;1.00;;;;;;4974184;28;20575;-62
2023/01/02 00:03:33;;;;;;;8.15;2.78;;;13.60;1.00;;;;;;4965463;28;20218;-65
2023/01/02 00:06:05;;;;;;;17.37;3.10;;;13.70;1.00;;;;;;4965036;28;20698;-63
2023/01/02 00:08:32;;;;;;;9.37;3.10;;;13.80;1.00;;;;;;4948951;28;20309;-64
2023/01/02 00:10:59;;;;;;;9.27;3.30;;;13.70;1.00;;;;;;4964567;28;20359;-62
2023/01/02 00:13:26;;;;;;;9.10;3.17;;;13.70;1.00;;;;;;4964985;28;20458;-63
2023/01/02 00:15:53;;;;;;;12.30;3.37;;;13.70;1.00;;;;;;4966659;28;20291;-61
2023/01/02 00:18:20;;;;;;;14.02;3.78;;;13.80;1.00;;;;;;4964241;28;20278;-63
2023/01/02 00:20:47;;;;;;;10.10;3.30;;;13.90;1.00;;;;;;4948140;28;20198;-63
2023/01/02 00:23:14;;;;;;;11.73;3.27;;;13.80;1.00;;;;;;4963249;28;20186;-62
2023/01/02 00:25:41;;;;;;;11.35;3.30;;;13.70;1.00;;;;;;4964828;28;20205;-63
2023/01/02 00:28:08;;;;;;;12.17;3.63;;;13.60;1.00;;;;;;4965054;28;20214;-61
2023/01/02 00:30:39;;;;;;;9.03;3.20;;;13.70;1.00;;;;;;4966661;28;20218;-63
2023/01/02 00:33:06;;;;;;;12.48;3.22;;;13.80;1.00;;;;;;4966143;28;20208;-61
2023/01/02 00:35:35;;;;;;;5.82;3.15;;;13.90;1.00;;;;;;4965716;28;20296;-62
2023/01/02 00:38:03;;;;;;;7.53;3.30;;;14.00;1.00;;;;;;4964631;28;20210;-62
2023/01/02 00:40:30;;;;;;;8.20;2.88;;;14.00;1.00;;;;;;4966883;28;20216;-63
2023/01/02 00:42:57;;;;;;;5.90;2.90;;;14.00;1.00;;;;;;4965807;28;20638;-63
2023/01/02 00:45:23;;;;;;;8.82;2.88;;;13.90;1.00;;;;;;4966094;28;20665;-64
2023/01/02 00:47:50;;;;;;;11.93;3.53;;;14.00;1.00;;;;;;4964720;28;20195;-61
2023/01/02 00:50:18;;;;;;;13.00;3.42;;;13.90;1.00;;;;;;4956257;28;20241;-61
2023/01/02 00:52:45;;;;;;;10.95;2.85;;;14.00;1.00;;;;;;4964055;28;20582;-62
2023/01/02 00:55:12;;;;;;;12.68;2.78;;;14.10;1.00;;;;;;4963920;28;20198;-61
2023/01/02 00:57:39;;;;;;;6.75;2.63;;;14.30;1.00;;;;;;4964994;28;20550;-62
2023/01/02 01:00:06;;;;;;;9.15;3.20;;;14.40;1.00;;;;;;4972243;28;20564;-62
2023/01/02 01:02:33;;;;;;;10.17;2.77;;;14.50;1.00;;;;;;4963942;28;20201;-62
2023/01/02 01:05:03;;;;;;;8.93;2.67;;;14.60;1.00;;;;;;4956135;28;20202;-62
2023/01/02 01:07:30;;;;;;;9.25;3.03;;;14.60;1.00;;;;;;4962919;28;20742;-61
2023/01/02 01:09:56;;;;;;;11.40;3.15;;;14.50;1.00;;;;;;4965541;28;20285;-62
2023/01/02 01:12:23;;;;;;;8.63;2.67;;;14.50;1.00;;;;;;4963988;28;20206;-62
2023/01/02 01:14:50;;;;;;;7.43;3.13;;;14.40;1.00;;;;;;4964060;28;20202;-62
2023/01/02 01:17:17;;;;;;;8.13;2.88;;;14.50;1.00;;;;;;4965123;28;20182;-61
2023/01/02 01:19:44;;;;;;;9.77;3.20;;;14.50;1.00;;;;;;4962332;28;20638;-61
2023/01/02 01:22:11;;;;;;;15.07;3.30;;;14.40;1.00;;;;;;4964805;28;20827;-66
2023/01/02 01:24:40;;;;;;;10.47;2.77;;;14.30;1.00;;;;;;4962159;28;20226;-65
2023/01/02 01:27:07;;;;;;;8.77;2.83;;;14.40;1.00;;;;;;4963102;28;20308;-65
2023/01/02 01:29:34;;;;;;;4.80;2.53;;;14.20;1.00;;;;;;4957434;28;20198;-63
2023/01/02 01:32:01;;;;;;;5.75;2.90;;;14.30;1.00;;;;;;4962481;28;20216;-63
2023/01/02 01:34:28;;;;;;;11.73;3.50;;;14.20;1.00;;;;;;4961472;28;20226;-60
2023/01/02 01:36:55;;;;;;;9.73;3.40;;;14.20;1.00;;;;;;4962892;28;20221;-60
2023/01/02 01:39:22;;;;;;;11.05;2.97;;;14.10;1.00;;;;;;4962889;28;20201;-61
2023/01/02 01:41:49;;;;;;;13.23;4.65;;;14.00;1.00;;;;;;4961451;28;20697;-60
2023/01/02 01:44:43;;;;;;;7.75;3.97;;;13.90;1.00;;;;;;4980724;28;20577;-62
2023/01/02 01:47:43;;;;;;;11.55;4.07;;;13.80;1.00;;;;;;4964969;28;20707;-62
2023/01/02 01:50:34;;;;;;;8.32;3.70;;;13.90;1.00;;;;;;4960990;28;20280;-59
2023/01/02 01:53:12;;;;;;;11.82;3.72;;;14.00;1.00;;;;;;4961527;28;20190;-66
2023/01/02 01:55:45;;;;;;;10.95;4.60;;;13.90;1.00;;;;;;4962937;28;20206;-60
2023/01/02 01:58:18;;;;;;;10.88;5.22;;;14.00;1.00;;;;;;4963302;28;20198;-61
2023/01/02 02:00:45;;;;;;;9.97;4.07;;;13.90;1.00;;;;;;4962990;28;20197;-61
2023/01/02 02:03:20;;;;;;;7.93;4.97;;;13.80;1.00;;;;;;5019693;23;20601;-78
2023/01/02 02:05:51;;;;;;;18.15;8.15;;;13.80;1.00;;;;;;4968870;28;20201;-78
2023/01/02 02:08:34;;;;;;;20.23;9.60;;;13.80;1.00;;;;;;4969413;28;20225;-78
2023/01/02 02:11:01;;;;;;;20.92;7.93;;;13.80;1.00;;;;;;4953176;28;20212;-78
2023/01/02 02:13:32;;;;;;;19.13;7.18;;;13.80;1.00;;;;;;4969160;28;20233;-78
2023/01/02 02:16:18;;;;;;;11.90;5.53;;;13.80;1.00;;;;;;4969205;28;20692;-78
2023/01/02 02:18:51;;;;;;;17.70;6.17;;;13.80;1.00;;;;;;4968235;28;20216;-78
2023/01/02 02:21:18;;;;;;;8.45;4.07;;;13.80;1.00;;;;;;4966508;28;20297;-78
2023/01/02 02:24:22;;;;;;;9.13;3.10;;;13.70;1.00;;;;;;4979693;28;22793;-77
2023/01/02 02:26:58;;;;;;;9.33;3.23;;;13.80;1.00;;;;;;4949015;28;20288;-77
2023/01/02 02:29:47;;;;;;;8.50;3.03;;;13.70;1.00;;;;;;4963881;28;20201;-78
2023/01/02 02:32:37;;;;;;;10.63;3.30;;;13.70;1.00;;;;;;4972447;28;20652;-77
2023/01/02 02:35:19;;;;;;;9.03;3.03;;;13.70;1.00;;;;;;4959373;28;20247;-78
2023/01/02 02:37:54;;;;;;;8.70;3.07;;;13.70;1.00;;;;;;4981594;28;20286;-79
2023/01/02 02:41:08;;;;;;;8.43;3.45;;;13.80;1.00;;;;;;4990785;28;20197;-80
2023/01/02 02:43:54;;;;;;;7.82;3.13;;;13.80;1.00;;;;;;4977382;28;20221;-78
2023/01/02 02:46:31;;;;;;;12.95;4.20;;;13.90;1.00;;;;;;4983512;28;20333;-79
2023/01/02 02:49:04;;;;;;;10.63;5.43;;;13.80;1.00;;;;;;4979276;28;20242;-79
2023/01/02 02:51:34;;;;;;;14.90;5.57;;;13.90;1.00;;;;;;4984244;28;20201;-79
2023/01/02 02:54:12;;;;;;;15.40;6.03;;;13.80;1.00;;;;;;4984090;28;20209;-78
2023/01/02 02:56:41;;;;;;;11.43;3.45;;;13.90;1.00;;;;;;4973391;28;20218;-78
2023/01/02 02:59:10;;;;;;;18.38;9.07;;;13.90;1.00;;;;;;4964551;28;20205;-78
2023/01/02 03:01:37;;;;;;;18.50;6.87;;;13.90;1.00;;;;;;4955243;28;20572;-78
2023/01/02 03:04:18;;;;;;;9.93;3.22;;;13.80;1.00;;;;;;4961981;28;20585;-78
2023/01/02 03:07:15;;;;;;;7.40;3.37;;;13.80;1.00;;;;;;4966318;28;20206;-78
2023/01/02 03:10:00;;;;;;;8.32;3.25;;;13.80;1.00;;;;;;4995094;28;20264;-81
2023/01/02 03:13:05;;;;;;;11.47;2.97;;;13.90;1.00;;;;;;4998280;28;20209;-79
2023/01/02 03:15:39;;;;;;;13.03;3.53;;;13.90;1.00;;;;;;4988476;28;20189;-80
2023/01/02 03:18:25;;;;;;;7.17;2.73;;;13.90;1.00;;;;;;5025875;23;20255;-83
2023/01/02 03:21:09;;;;;;;10.07;3.08;;;13.80;1.00;;;;;;4979468;28;20268;-84
2023/01/02 03:23:43;;;;;;;9.50;3.07;;;13.90;1.00;;;;;;4978403;28;20197;-89
2023/01/02 03:26:13;;;;;;;10.10;2.90;;;13.90;1.00;;;;;;5000186;28;20238;-85
2023/01/02 03:28:43;;;;;;;10.23;3.45;;;13.90;1.00;;;;;;4985781;28;20205;-84
2023/01/02 03:31:17;;;;;;;8.70;2.90;;;14.00;1.00;;;;;;4993969;28;20270;-83
2023/01/02 03:33:58;;;;;;;6.60;2.90;;;14.00;1.00;;;;;;4980753;28;20216;-83
2023/01/02 03:36:29;;;;;;;10.13;3.05;;;13.90;1.00;;;;;;4981719;28;20245;-82
2023/01/02 03:39:18;;;;;;;7.53;3.13;;;14.00;1.00;;;;;;4961268;28;20281;-80
2023/01/02 03:41:55;;;;;;;6.65;3.00;;;14.00;1.00;;;;;;4978864;28;20283;-82
2023/01/02 03:44:29;;;;;;;7.27;2.83;;;14.00;1.00;;;;;;4996823;28;20195;-86
2023/01/02 03:47:08;;;;;;;8.70;3.53;;;14.00;1.00;;;;;;4975481;28;20228;-83
2023/01/02 03:49:42;;;;;;;8.77;3.20;;;14.00;1.00;;;;;;4993977;28;20227;-79
2023/01/02 03:52:09;;;;;;;6.97;2.90;;;14.10;1.00;;;;;;4964041;28;20229;-80
2023/01/02 03:54:37;;;;;;;16.13;3.35;;;14.00;1.00;;;;;;4960947;28;20194;-82
2023/01/02 03:57:07;;;;;;;7.17;2.93;;;14.00;1.00;;;;;;4943846;28;20221;-79
2023/01/02 04:00:05;;;;;;;10.43;3.28;;;14.10;1.00;;;;;;4960012;28;20607;-79
2023/01/02 04:02:50;;;;;;;9.38;3.60;;;14.00;1.00;;;;;;4994570;28;20213;-82
2023/01/02 04:05:25;;;;;;;12.73;3.40;;;13.80;1.00;;;;;;4976103;28;20287;-80
2023/01/02 04:08:15;;;;;;;13.20;3.38;;;14.00;1.00;;;;;;4985656;28;20193;-79
2023/01/02 04:10:44;;;;;;;5.88;2.35;;;13.80;1.00;;;;;;4983981;28;20610;-79
2023/01/02 04:13:18;;;;;;;10.67;3.30;;;13.70;1.00;;;;;;4973672;28;20197;-81
2023/01/02 04:15:47;;;;;;;12.90;3.27;;;13.70;1.00;;;;;;4958529;28;20209;-83
2023/01/02 04:18:20;;;;;;;10.93;3.03;;;13.50;1.00;;;;;;4989800;28;20244;-81
2023/01/02 04:20:51;;;;;;;10.10;3.10;;;13.60;1.00;;;;;;4974741;28;20228;-84
2023/01/02 04:23:36;;;;;;;8.27;3.30;;;13.60;1.00;;;;;;4972831;28;20716;-80
2023/01/02 04:26:26;;;;;;;8.17;3.33;;;13.50;1.00;;;;;;4970821;28;20210;-78
2023/01/02 04:28:53;;;;;;;7.00;3.20;;;13.40;1.00;;;;;;4954276;28;20296;-78
2023/01/02 04:31:27;;;;;;;10.43;3.58;;;13.40;1.00;;;;;;4988154;28;20225;-79
2023/01/02 04:33:59;;;;;;;9.53;3.70;;;13.30;1.00;;;;;;4969738;28;20221;-79
2023/01/02 04:36:29;;;;;;;12.77;3.60;;;13.20;1.00;;;;;;4970889;28;20217;-80
2023/01/02 04:38:56;;;;;;;14.20;4.53;;;13.30;1.00;;;;;;4970870;28;20198;-78
2023/01/02 04:41:27;;;;;;;13.97;4.10;;;13.30;1.00;;;;;;4969062;28;20221;-79
2023/01/02 04:43:55;;;;;;;13.57;3.40;;;13.30;1.00;;;;;;4967814;28;20190;-79
2023/01/02 04:46:24;;;;;;;12.37;3.07;;;13.30;1.00;;;;;;4971076;28;20210;-79
2023/01/02 04:48:53;;;;;;;8.27;3.00;;;13.20;1.00;;;;;;4969337;28;20292;-77
2023/01/02 04:51:20;;;;;;;8.90;3.60;;;13.20;1.00;;;;;;4987639;28;20284;-78
2023/01/02 04:53:49;;;;;;;12.33;4.10;;;13.20;1.00;;;;;;4971136;28;20228;-78
2023/01/02 04:56:18;;;;;;;10.30;3.93;;;13.20;1.00;;;;;;4970539;28;20305;-79
2023/01/02 04:58:45;;;;;;;12.47;3.80;;;13.20;1.00;;;;;;4964756;28;20188;-78
2023/01/02 05:01:15;;;;;;;9.77;3.53;;;13.20;1.00;;;;;;4964764;28;20270;-79
2023/01/02 05:03:45;;;;;;;7.87;3.30;;;13.20;1.00;;;;;;4953581;28;20218;-78
2023/01/02 05:06:13;;;;;;;7.50;3.33;;;13.30;1.00;;;;;;4968800;28;20201;-79
2023/01/02 05:08:40;;;;;;;13.23;3.50;;;13.40;1.00;;;;;;4987224;28;20190;-77
2023/01/02 05:11:14;;;;;;;12.67;4.27;;;13.50;1.00;;;;;;4966140;28;20639;-78
2023/01/02 05:13:41;;;;;;;9.60;3.87;;;13.40;1.00;;;;;;4969921;28;20284;-79
2023/01/02 05:16:09;;;;;;;8.13;3.10;;;13.50;1.00;;;;;;4968560;28;20316;-77
2023/01/02 05:18:36;;;;;;;7.13;2.90;;;13.60;1.00;;;;;;4966142;28;20234;-78
2023/01/02 05:23:55;;;;;;;10.03;3.23;;;13.60;1.00;;;;;;4968388;28;20190;-77
2023/01/02 05:26:22;;;;;;;9.07;3.10;;;13.60;1.00;;;;;;4982269;28;20206;-77
2023/01/02 05:28:52;;;;;;;6.77;2.90;;;13.60;1.00;;;;;;4965517;28;20682;-77
2023/01/02 05:31:19;;;;;;;10.20;3.03;;;13.60;1.00;;;;;;4963525;28;20191;-78
2023/01/02 05:33:57;;;;;;;9.10;3.00;;;13.60;1.00;;;;;;4948368;28;20201;-78
2023/01/02 05:36:26;;;;;;;15.33;3.93;;;13.60;1.00;;;;;;4974261;28;20253;-79
2023/01/02 05:38:53;;;;;;;7.70;3.37;;;13.70;1.00;;;;;;4956561;28;20202;-78
2023/01/02 05:41:21;;;;;;;9.33;2.83;;;13.70;1.00;;;;;;4956950;28;20683;-79
2023/01/02 05:43:50;;;;;;;9.60;3.60;;;13.80;1.00;;;;;;4969764;28;20309;-81
2023/01/02 05:46:19;;;;;;;7.05;3.10;;;13.70;1.00;;;;;;4971161;28;20212;-79
2023/01/02 05:48:46;;;;;;;11.48;3.35;;;13.80;1.00;;;;;;4966863;28;20194;-79
2023/01/02 05:51:15;;;;;;;8.00;3.10;;;13.80;1.00;;;;;;4968547;28;20258;-79
2023/01/02 05:53:43;;;;;;;5.82;2.92;;;13.80;1.00;;;;;;4963426;28;20733;-76
2023/01/02 05:56:15;;;;;;;9.23;3.25;;;13.80;1.00;;;;;;4948618;28;20591;-78
2023/01/02 05:58:44;;;;;;;8.65;2.78;;;13.80;1.00;;;;;;4968820;28;20187;-76
2023/01/02 06:01:23;;;;;;;11.17;3.00;;;13.80;1.00;;;;;;4960035;28;20190;-76
2023/01/02 06:03:55;;;;;;;7.85;3.38;;;13.70;1.00;;;;;;4971111;28;20226;-76
2023/01/02 06:06:34;;;;;;;8.03;3.23;;;13.70;1.00;;;;;;4962319;28;20217;-77
2023/01/02 06:09:03;;;;;;;9.90;2.87;;;13.70;1.00;;;;;;4968867;28;20301;-77
2023/01/02 06:11:31;;;;;;;7.93;2.87;;;13.70;1.00;;;;;;4967983;28;20253;-77
2023/01/02 06:13:58;;;;;;;8.60;2.78;;;13.70;1.00;;;;;;4968963;28;20251;-78
2023/01/02 06:16:25;;;;;;;10.50;3.23;;;13.70;1.00;;;;;;4954813;28;20218;-77
2023/01/02 06:18:52;;;;;;;11.53;4.07;;;13.70;1.00;;;;;;4987635;28;20192;-77
2023/01/02 06:21:20;;;;;;;11.67;3.93;;;13.60;1.00;;;;;;4974542;28;20189;-78
2023/01/02 06:23:52;;;;;;;8.57;3.10;;;13.60;1.00;;;;;;4971936;28;20794;-78
2023/01/02 06:26:19;;;;;;;12.98;4.03;;;13.60;1.00;;;;;;4967333;28;20255;-78
2023/01/02 06:28:53;;;;;;;12.40;3.93;;;13.70;1.00;;;;;;4971622;28;20271;-78
2023/01/02 06:31:22;;;;;;;12.65;3.92;;;13.60;1.00;;;;;;4989779;28;20177;-78
2023/01/02 06:33:57;;;;;;;12.10;3.10;;;13.60;1.00;;;;;;4973032;28;20213;-77
2023/01/02 06:36:25;;;;;;;17.17;4.18;;;13.60;1.00;;;;;;4973878;28;20209;-78
2023/01/02 06:38:52;;;;;;;12.03;4.07;;;13.70;1.00;;;;;;4956841;28;20314;-78
2023/01/02 06:41:19;;;;;;;12.23;3.80;;;13.70;1.00;;;;;;4968015;28;20202;-81
2023/01/02 06:43:48;;;;;;;8.00;3.73;;;13.70;1.00;;;;;;4975057;28;20220;-78
2023/01/02 06:46:17;;;;;;;10.27;3.90;;;13.70;1.00;;;;;;4988893;28;20209;-78
2023/01/02 06:48:45;;;;;;;5.83;3.30;;;13.70;1.00;;;;;;4973930;28;20225;-79
2023/01/02 06:51:15;;;;;;;6.60;2.73;;;13.70;1.00;;;;;;4973774;28;20194;-78
2023/01/02 06:53:43;;;;;;;7.25;3.08;;;13.80;1.00;;;;;;4979339;28;20189;-77
2023/01/02 06:56:12;;;;;;;10.07;3.30;;;13.70;1.00;;;;;;4969134;28;20352;-80
2023/01/02 06:58:39;;;;;;;8.83;2.70;;;13.70;1.00;;;;;;4973365;28;20201;-79
2023/01/02 07:01:08;;;;;;;7.90;3.43;;;13.70;1.00;;;;;;4988096;28;20198;-78
2023/01/02 07:03:36;;;;;;;9.03;3.30;;;13.70;1.00;;;;;;4983313;28;20313;-78
2023/01/02 07:06:12;;;;;;;12.53;3.80;;;13.60;1.00;;;;;;4973253;28;20233;-78
2023/01/02 07:08:41;;;;;;;6.90;2.90;;;13.50;1.00;;;;;;4973933;28;20284;-82
2023/01/02 07:11:18;;;;;;;10.30;3.27;;;13.40;1.00;;;;;;4972439;28;20205;-79
2023/01/02 07:13:46;;;;;;;9.43;3.50;;;13.40;1.00;;;;;;4970009;28;20278;-80
2023/01/02 07:16:15;;;;;;;11.10;3.50;;;13.30;1.00;;;;;;4957006;28;20205;-79
2023/01/02 07:18:43;;;;;;;10.13;3.60;;;13.30;1.00;;;;;;4964158;28;20214;-80
2023/01/02 07:21:11;;;;;;;15.93;3.53;;;13.30;1.00;;;;;;4955264;28;20198;-78
2023/01/02 07:23:38;;;;;;;10.47;3.57;;;13.20;1.00;;;;;;4970942;28;20196;-79
2023/01/02 07:26:06;;;;;;;9.17;4.20;;;13.30;1.00;;;;;;4971745;28;20205;-79
2023/01/02 07:28:34;;;;;;;13.70;4.43;;;13.20;1.00;;;;;;4972656;28;20206;-81
2023/01/02 07:31:05;;;;;;;9.93;3.33;;;13.20;1.00;;;;;;4964723;28;20193;-81
2023/01/02 07:33:32;;;;;;;12.57;3.17;;;13.20;1.00;;;;;;4978072;28;20208;-79
2023/01/02 07:36:02;;;;;;;9.50;4.20;;;13.30;1.00;;;;;;4955774;28;20230;-78
2023/01/02 07:38:30;;;;;;;13.37;3.77;;;13.20;1.00;;;;;;4989102;28;20260;-78
2023/01/02 07:40:57;;;;;;;7.93;3.93;;;13.20;1.00;;;;;;4972033;28;20226;-77
2023/01/02 07:43:25;;;;;;;8.73;3.73;;;13.30;1.00;;;;;;4969280;28;20402;-77
2023/01/02 07:45:52;;;;;;;9.60;2.77;;;13.30;1.00;;;;;;4969623;28;20372;-77
2023/01/02 07:48:19;;;;;;;7.77;3.10;;;13.30;1.00;;;;;;4953501;28;20233;-78
2023/01/02 07:50:46;;;;;;;7.33;3.20;;;13.20;1.00;;;;;;4972857;28;20209;-77
2023/01/02 07:53:14;;;;;;;13.83;4.37;;;13.30;1.00;;;;;;4976821;28;20205;-77
2023/01/02 07:55:41;;;;;;;12.27;3.83;;;13.20;1.00;;;;;;4972701;28;20221;-77
2023/01/02 07:58:09;;;;;;;11.03;3.27;;;13.30;1.00;;;;;;4975043;28;20214;-77
2023/01/02 08:00:37;;;;;;;14.03;4.50;;;13.40;1.00;;;;;;4974472;28;20186;-77
2023/01/02 08:03:04;;;;;;;10.37;3.90;;;13.40;1.00;;;;;;4971392;28;20306;-77
2023/01/02 08:05:33;;;;;;;13.77;4.77;;;13.50;1.00;;;;;;4971429;28;20213;-78
2023/01/02 08:08:00;;;;;;;12.83;3.70;;;13.40;1.00;;;;;;4955638;28;20669;-82
2023/01/02 08:10:27;;;;;;;13.07;3.63;;;13.40;1.00;;;;;;4987375;28;20320;-80
2023/01/02 08:12:56;;;;;;;7.97;3.23;;;13.40;1.00;;;;;;4955216;28;20208;-82
2023/01/02 08:15:24;;;;;;;7.83;3.83;;;13.40;1.00;;;;;;4970258;28;20204;-79
2023/01/02 08:17:52;;;;;;;10.00;3.93;;;13.40;1.00;;;;;;4954515;28;20777;-78
2023/01/02 08:20:19;;;;;;;7.87;2.73;;;13.40;1.00;;;;;;4952762;28;20796;-77
2023/01/02 08:22:47;;;;;;;6.93;2.78;;;13.50;1.00;;;;;;4970993;28;20190;-77
2023/01/02 08:25:15;;;;;;;4.73;2.57;;;13.40;1.00;;;;;;4949518;28;20248;-78
2023/01/02 08:27:42;;;;;;;7.00;2.47;;;13.30;1.00;;;;;;4954654;28;20225;-78
2023/01/02 08:30:10;;;;;;;9.07;3.00;;;13.20;1.00;;;;;;4966344;28;21274;-80
2023/01/02 08:32:37;;;;;;;9.13;2.90;;;13.10;1.00;;;;;;4970302;28;20225;-77
2023/01/02 08:35:06;;;;;;;6.23;2.67;;;13.00;1.00;;;;;;4967162;28;20364;-80
2023/01/02 08:37:33;;;;;;;9.63;3.43;;;13.00;1.00;;;;;;4970454;28;20589;-77
2023/01/02 08:40:01;;;;;;;9.77;3.13;;;13.00;1.00;;;;;;4984049;28;20554;-77
2023/01/02 08:42:31;;;;;;;8.87;3.20;;;13.00;1.00;;;;;;4970819;28;20613;-76
2023/01/02 08:45:02;;;;;;;8.67;3.20;;;13.00;1.00;;;;;;4967398;28;20561;-79
2023/01/02 08:47:29;;;;;;;8.43;3.80;;;13.00;1.00;;;;;;4963898;28;20213;-81
2023/01/02 08:49:57;;;;;;;9.67;3.57;;;13.00;1.00;;;;;;4962372;28;20205;-79
2023/01/02 08:52:24;;;;;;;8.30;3.13;;;13.00;1.00;;;;;;4955064;28;20310;-79
2023/01/02 08:54:51;;;;;;;6.40;2.87;;;13.00;1.00;;;;;;4974587;28;20523;-79
2023/01/02 08:57:18;;;;;;;10.53;2.80;;;13.00;1.00;;;;;;4972553;28;20224;-79
2023/01/02 08:59:45;;;;;;;10.80;3.20;;;13.00;1.00;;;;;;4973106;28;20198;-80
2023/01/02 09:02:14;;;;;;;7.70;3.17;;;13.00;1.00;;;;;;4957918;28;20233;-82
2023/01/02 09:04:41;;;;;;;11.70;3.57;;;13.10;1.00;;;;;;4992359;28;20657;-80
2023/01/02 09:07:08;;;;;;;11.00;2.97;;;13.10;1.00;;;;;;4971677;28;20228;-79
2023/01/02 09:09:35;;;;;;;9.00;3.27;;;13.10;1.00;;;;;;4974618;28;20193;-79
2023/01/02 09:12:02;;;;;;;6.90;3.07;;;13.10;1.00;;;;;;4957743;28;20197;-82
2023/01/02 09:14:29;;;;;;;11.73;3.10;;;13.10;1.00;;;;;;4970736;28;20201;-79
2023/01/02 09:16:58;;;;;;;9.23;3.03;;;13.10;1.00;;;;;;4978071;28;20229;-78
2023/01/02 09:19:26;;;;;;;7.60;3.20;;;13.00;1.00;;;;;;4993183;28;20201;-78
2023/01/02 09:21:53;;;;;;;10.13;3.10;;;13.00;1.00;;;;;;4977103;28;20197;-79
2023/01/02 09:24:20;;;;;;;9.03;2.97;;;12.90;1.00;;;;;;4979188;28;20192;-79
2023/01/02 09:26:47;;;;;;;6.53;3.00;;;12.90;1.00;;;;;;4961454;28;20251;-82
2023/01/02 09:29:15;;;;;;;7.50;3.13;;;12.90;1.00;;;;;;4979356;28;20201;-81
2023/01/02 09:31:42;;;;;;;4.43;2.47;;;12.90;1.00;;;;;;4981757;28;20276;-80
2023/01/02 09:34:09;;;;;;;7.83;3.03;;;12.80;1.00;;;;;;4964431;28;20223;-81
2023/01/02 09:36:36;;;;;;;7.90;2.80;;;12.70;1.00;;;;;;4985543;28;20209;-80
2023/01/02 09:39:04;;;;;;;10.30;3.00;;;12.70;1.00;;;;;;5003316;28;20280;-80
2023/01/02 09:41:38;;;;;;;9.03;2.80;;;12.70;1.00;;;;;;4986175;28;20353;-81
2023/01/02 09:44:29;;;;;;;4.87;2.53;;;12.60;1.00;;;;;;4979407;28;20205;-82
2023/01/02 09:47:14;;;;;;;7.53;2.73;;;12.60;1.00;;;;;;5001935;28;20201;-81
2023/01/02 09:49:51;;;;;;;6.83;2.83;;;12.40;1.00;;;;;;4992643;28;20217;-80
2023/01/02 09:52:31;;;;;;;5.93;2.50;;;12.40;1.00;;;;;;4974715;28;20296;-79
2023/01/02 09:54:58;;;;;;;5.97;2.70;;;12.40;1.00;;;;;;4978143;28;20225;-81
2023/01/02 09:57:25;;;;;;;3.57;2.50;;;12.40;1.00;;;;;;4979458;28;20228;-80
2023/01/02 09:59:58;;;;;;;5.00;2.53;;;12.30;1.00;;;;;;4961821;28;20197;-81
2023/01/02 10:02:54;;;;;;;6.43;2.43;;;12.40;1.00;;;;;;4964952;28;20239;-80
2023/01/02 10:05:39;;;;;;;5.33;2.50;;;12.40;1.00;;;;;;4972168;28;20205;-78
2023/01/02 10:08:29;;;;;;;5.83;2.13;;;12.40;1.00;;;;;;4971971;28;20206;-81
2023/01/02 10:11:23;;;;;;;5.73;2.10;;;12.40;1.00;;;;;;4974655;28;20296;-81
2023/01/02 10:14:00;;;;;;;3.53;2.10;;;12.40;1.00;;;;;;4965995;28;20708;-81
2023/01/02 10:16:52;;;;;;;4.97;2.07;;;12.40;1.00;;;;;;4972407;28;20343;-81
2023/01/02 10:19:54;;;;;;;3.23;2.07;;;12.40;1.00;;;;;;4984947;28;20213;-80
2023/01/02 10:22:33;;;;;;;3.43;2.70;;;12.50;1.00;;;;;;4945859;29;20233;-80
2023/01/02 10:25:03;;;;;;;3.70;2.00;;;12.60;1.00;;;;;;4944240;29;20263;-81
2023/01/02 10:27:38;;;;;;;4.00;2.27;;;12.50;1.00;;;;;;4960455;29;20199;-80
2023/01/02 10:30:17;;;;;;;2.93;1.90;;;12.50;1.00;;;;;;4957781;28;20204;-80
2023/01/02 10:33:03;;;;;;;4.77;2.27;;;12.40;1.00;;;;;;4969502;28;20205;-81
2023/01/02 10:35:35;;;;;;;2.03;1.67;;;12.30;1.00;;;;;;5000710;28;20201;-81
2023/01/02 10:38:02;;;;;;;3.70;1.87;;;12.20;1.00;;;;;;4998694;28;20638;-81
2023/01/02 10:40:31;;;;;;;4.50;2.77;;;12.20;1.00;;;;;;4980840;28;20212;-82
2023/01/02 10:43:01;;;;;;;4.73;3.27;;;12.20;1.00;;;;;;4975422;28;20301;-81
2023/01/02 10:45:29;;;;;;;1.93;1.70;;;12.10;1.00;;;;;;4965140;28;20309;-81
2023/01/02 10:47:56;;;;;;;3.87;2.93;;;12.00;1.00;;;;;;4968056;28;20276;-81
2023/01/02 10:50:30;;;;;;;2.20;1.60;;;12.10;1.00;;;;;;4976113;28;20223;-85
2023/01/02 10:53:28;;;;;;;1.70;1.40;;;12.10;1.00;;;;;;4983522;28;20204;-80
2023/01/02 10:55:55;;;;;;;3.43;2.07;;;12.10;1.00;;;;;;4988362;28;20653;-87
2023/01/02 10:58:29;;;;;;;3.50;2.53;;;12.20;1.00;;;;;;4968025;28;20221;-83
2023/01/02 11:01:17;;;;;;;1.87;1.57;;;12.20;1.00;;;;;;4995529;28;20212;-84
2023/01/02 11:04:05;;;;;;;2.60;2.27;;;12.20;1.00;;;;;;4969030;28;20224;-85
2023/01/02 11:06:32;;;;;;;5.33;4.37;;;12.20;1.00;;;;;;4982440;28;20194;-81
2023/01/02 11:09:25;;;;;;;7.23;4.23;;;12.20;1.00;;;;;;4980949;28;20213;-81
2023/01/02 11:12:05;;;;;;;2.90;2.27;;;12.20;1.00;;;;;;4988039;28;20708;-78
2023/01/02 11:14:35;;;;;;;6.17;4.00;;;12.20;1.00;;;;;;4960136;28;20198;-81
2023/01/02 11:17:18;;;;;;;9.47;7.10;;;12.10;1.00;;;;;;4979483;28;20237;-82
2023/01/02 11:19:48;;;;;;;6.87;5.33;;;12.00;1.00;;;;;;4971279;28;20729;-80
2023/01/02 11:22:19;;;;;;;3.33;3.00;;;11.90;1.00;;;;;;4966066;28;20198;-80
2023/01/02 11:25:05;;;;;;;7.10;4.77;;;11.90;1.00;;;;;;4978534;28;20202;-80
2023/01/02 11:27:35;;;;;;;2.90;2.30;;;12.00;1.00;;;;;;4965400;28;20210;-82
2023/01/02 11:30:05;;;;;;;4.77;3.70;;;12.10;1.00;;;;;;4964643;28;20299;-80
2023/01/02 11:32:38;;;;;;;4.23;3.63;;;12.00;1.00;;;;;;4978094;28;20194;-81
2023/01/02 11:35:44;;;;;;;8.63;6.17;;;12.10;1.00;;;;;;4987936;28;20202;-81
2023/01/02 11:38:13;;;;;;;7.03;5.70;;;12.10;1.00;;;;;;4982579;28;20363;-81
2023/01/02 11:40:51;;;;;;;11.57;8.23;;;12.10;1.00;;;;;;4975259;28;20214;-81
2023/01/02 11:43:50;;;;;;;8.00;4.57;;;12.10;1.00;;;;;;4994200;28;20733;-81
2023/01/02 11:46:20;;;;;;;5.83;4.37;;;12.10;1.00;;;;;;4982744;28;20548;-83
2023/01/02 11:48:51;;;;;;;5.23;4.47;;;12.20;1.00;;;;;;4997327;28;20698;-80
2023/01/02 11:51:20;;;;;;;3.77;3.17;;;12.00;1.00;;;;;;4964067;28;20640;-79
2023/01/02 11:53:51;;;;;;;7.77;5.13;;;11.90;1.00;;;;;;4971184;28;20220;-81
2023/01/02 11:56:31;;;;;;;6.17;4.53;;;12.00;1.00;;;;;;4964759;28;20209;-81
2023/01/02 11:59:18;;;;;;;7.57;5.40;;;12.10;1.00;;;;;;4997749;28;20233;-80
2023/01/02 12:02:00;;;;;;;5.80;4.33;;;12.30;1.00;;;;;;4979780;28;20281;-83
2023/01/02 12:04:28;;;;;;;5.67;4.20;;;12.20;1.00;;;;;;4961551;28;20198;-84
2023/01/02 12:07:09;;;;;;;6.27;5.30;;;12.30;1.00;;;;;;4976215;28;20232;-87
2023/01/02 12:09:48;;;;;;;7.93;5.30;;;12.40;1.00;;;;;;4979065;28;20612;-80
2023/01/02 12:12:28;;;;;;;7.37;5.13;;;12.10;1.00;;;;;;4981736;28;20216;-85
2023/01/02 12:15:01;;;;;;;5.03;4.20;;;12.30;1.00;;;;;;4973758;28;20252;-81
2023/01/02 12:17:59;;;;;;;5.70;5.13;;;12.30;1.00;;;;;;4961385;28;20239;-85
2023/01/02 12:20:29;;;;;;;5.00;4.50;;;12.20;1.00;;;;;;4976282;28;20747;-82
2023/01/02 12:23:26;;;;;;;4.90;4.50;;;12.00;1.00;;;;;;4959985;28;20257;-80
2023/01/02 12:26:02;;;;;;;4.47;4.07;;;12.00;1.00;;;;;;4974653;28;20206;-80
2023/01/02 12:28:52;;;;;;;6.47;5.10;;;11.90;1.00;;;;;;4976847;28;20230;-80
2023/01/02 12:31:52;;;;;;;5.37;4.80;;;11.90;1.00;;;;;;4982505;28;20206;-84
2023/01/02 12:34:32;;;;;;;5.80;5.20;;;11.80;1.00;;;;;;4959895;28;20205;-80
2023/01/02 12:37:32;;;;;;;7.93;4.80;;;11.70;1.00;;;;;;4975501;28;20253;-79
2023/01/02 12:40:22;;;;;;;5.43;4.87;;;11.60;1.00;;;;;;4990766;28;20586;-78
2023/01/02 12:43:14;;;;;;;6.10;5.27;;;11.70;1.00;;;;;;4950638;28;20211;-79
2023/01/02 12:46:09;;;;;;;5.33;4.83;;;11.90;1.00;;;;;;4992126;28;20203;-82
2023/01/02 12:49:24;;;;;;;8.20;7.50;;;11.80;1.00;;;;;;4986275;28;20206;-80
2023/01/02 12:52:04;;;;;;;8.93;8.03;;;11.60;1.00;;;;;;4921467;28;20287;-80
2023/01/02 12:54:59;;;;;;;9.60;8.70;;;11.70;1.00;;;;;;4954744;28;20318;-78
2023/01/02 12:57:54;;;;;;;10.00;9.00;;;11.70;1.00;;;;;;4984712;28;20218;-82
2023/01/02 13:00:33;;;;;;;11.50;10.37;;;11.70;1.00;;;;;;4961965;28;20198;-79
2023/01/02 13:03:35;;;;;;;10.73;9.63;;;11.70;1.00;;;;;;4985654;28;20222;-79
2023/01/02 13:06:23;;;;;;;11.00;9.03;;;11.60;1.00;;;;;;4955743;28;20210;-83
2023/01/02 13:09:18;;;;;;;9.77;8.87;;;11.70;1.00;;;;;;4972845;28;20272;-79
2023/01/02 13:12:21;;;;;;;10.23;9.13;;;11.70;1.00;;;;;;4988171;28;20260;-78
2023/01/02 13:15:33;;;;;;;9.67;8.67;;;11.70;1.00;;;;;;4951196;28;20206;-78
2023/01/02 13:18:24;;;;;;;9.67;8.70;;;11.60;1.00;;;;;;4912440;29;20352;-79
2023/01/02 13:21:10;;;;;;;10.27;7.70;;;11.60;1.00;;;;;;4913154;29;20689;-85
2023/01/02 13:23:45;;;;;;;8.23;7.43;;;11.70;1.00;;;;;;4969246;28;20206;-80
2023/01/02 13:26:14;;;;;;;9.97;8.17;;;11.70;1.00;;;;;;4967376;28;20256;-79
2023/01/02 13:29:22;;;;;;;8.00;7.20;;;11.70;1.00;;;;;;4969018;28;20249;-78
2023/01/02 13:31:54;;;;;;;7.77;6.97;;;11.70;1.00;;;;;;4963337;28;21198;-79